Time;durP1;ratioP1;P1;durP2;ratioP2;P2;SDS_P1;SDS_P2;PMS_P1;PMS_P2;Temp;Humidity;BMP_temperature;BMP_pressure;BME280_temperature;BME280_humidity;BME280_pressure;Samples;Min_cycle;Max_cycle;Signal;HPM_P1;HPM_P2
2021/04/04 00:01:27;;;;;;;36.03;7.95;;;5.70;43.90;;;;;;5032661;28;20408;-75
2021/04/04 00:03:52;;;;;;;30.23;7.80;;;5.70;43.90;;;;;;5047151;28;20838;-77
2021/04/04 00:06:18;;;;;;;24.67;7.53;;;5.60;43.90;;;;;;5036076;28;20437;-76
2021/04/04 00:08:44;;;;;;;27.25;7.18;;;5.60;44.30;;;;;;5051300;28;20775;-76
2021/04/04 00:11:09;;;;;;;24.83;7.50;;;5.50;45.10;;;;;;5051033;28;20400;-76
2021/04/04 00:13:36;;;;;;;41.93;8.40;;;5.60;44.50;;;;;;5051659;28;20388;-77
2021/04/04 00:16:03;;;;;;;30.07;8.17;;;5.60;43.90;;;;;;5046939;28;20408;-77
2021/04/04 00:18:29;;;;;;;34.10;7.80;;;5.70;43.70;;;;;;5052094;28;20866;-77
2021/04/04 00:20:55;;;;;;;27.23;8.13;;;5.80;43.00;;;;;;5053222;28;20388;-77
2021/04/04 00:23:21;;;;;;;35.53;8.00;;;5.80;43.20;;;;;;5035823;28;20389;-78
2021/04/04 00:25:46;;;;;;;27.10;7.85;;;5.80;44.10;;;;;;5055510;28;20953;-78
2021/04/04 00:28:12;;;;;;;23.60;7.00;;;5.90;42.40;;;;;;5053556;28;20918;-77
2021/04/04 00:30:38;;;;;;;33.30;7.90;;;6.00;41.60;;;;;;5052004;28;20623;-78
2021/04/04 00:33:04;;;;;;;26.30;8.50;;;6.00;41.00;;;;;;5052785;28;20388;-76
2021/04/04 00:35:29;;;;;;;36.42;7.90;;;6.00;42.40;;;;;;5025521;28;20490;-76
2021/04/04 00:37:55;;;;;;;26.63;7.20;;;6.10;41.80;;;;;;5049195;28;20393;-77
2021/04/04 00:40:28;;;;;;;27.77;8.17;;;6.20;41.10;;;;;;5051892;28;20421;-77
2021/04/04 00:42:54;;;;;;;26.63;6.95;;;6.30;39.60;;;;;;5052399;28;20912;-77
2021/04/04 00:45:32;;;;;;;29.47;7.47;;;6.20;38.50;;;;;;5045561;28;20407;-77
2021/04/04 00:47:57;;;;;;;37.47;7.30;;;6.10;39.00;;;;;;5031756;28;20873;-77
2021/04/04 00:50:26;;;;;;;25.08;7.00;;;6.10;39.20;;;;;;5032034;28;20397;-76
2021/04/04 00:52:53;;;;;;;20.73;6.60;;;6.00;38.80;;;;;;5050768;28;20424;-76
2021/04/04 00:55:19;;;;;;;29.63;7.25;;;6.00;38.80;;;;;;5049893;28;20397;-77
2021/04/04 00:57:45;;;;;;;18.60;6.68;;;5.90;39.50;;;;;;5057188;28;20470;-77
2021/04/04 01:00:13;;;;;;;23.50;6.95;;;5.80;40.00;;;;;;5070522;28;20413;-77
2021/04/04 01:02:40;;;;;;;31.58;7.18;;;5.80;40.20;;;;;;5069725;28;20376;-77
2021/04/04 01:05:09;;;;;;;34.05;6.93;;;5.80;40.20;;;;;;5050913;28;20511;-77
2021/04/04 01:07:35;;;;;;;31.30;7.70;;;5.80;40.40;;;;;;5051924;28;20503;-77
2021/04/04 01:10:08;;;;;;;24.42;6.38;;;5.80;40.20;;;;;;5033691;28;20880;-77
2021/04/04 01:12:51;;;;;;;27.38;8.30;;;5.70;40.30;;;;;;5051076;28;20400;-77
2021/04/04 01:15:28;;;;;;;29.27;7.75;;;5.70;40.80;;;;;;5050594;28;20397;-76
2021/04/04 01:17:55;;;;;;;23.17;6.65;;;5.70;40.90;;;;;;5033820;28;20391;-77
2021/04/04 01:20:52;;;;;;;29.95;7.15;;;5.70;40.60;;;;;;5032334;28;20379;-77
2021/04/04 01:23:48;;;;;;;26.73;7.15;;;5.60;41.60;;;;;;5030648;28;20438;-77
2021/04/04 01:26:34;;;;;;;28.58;7.95;;;5.60;41.80;;;;;;5045344;28;20854;-77
2021/04/04 01:29:02;;;;;;;26.25;7.25;;;5.60;41.30;;;;;;5058380;28;20933;-77
2021/04/04 01:31:29;;;;;;;29.38;7.57;;;5.50;41.80;;;;;;5056852;28;20424;-78
2021/04/04 01:33:57;;;;;;;32.80;8.07;;;5.50;42.10;;;;;;5056550;28;20393;-77
2021/04/04 01:36:25;;;;;;;31.48;7.40;;;5.40;43.90;;;;;;5039696;28;20428;-77
2021/04/04 01:38:52;;;;;;;30.90;8.90;;;5.40;45.30;;;;;;5039696;28;20386;-77
2021/04/04 01:41:21;;;;;;;28.60;8.63;;;5.30;47.00;;;;;;5054416;28;20401;-77
2021/04/04 01:43:51;;;;;;;33.67;8.45;;;5.20;48.30;;;;;;5056107;28;20892;-77
2021/04/04 01:46:17;;;;;;;26.55;8.95;;;5.30;45.90;;;;;;5046371;28;20402;-77
2021/04/04 01:48:43;;;;;;;35.58;7.85;;;5.40;47.00;;;;;;5034291;28;20409;-78
2021/04/04 01:51:18;;;;;;;32.03;8.40;;;5.40;45.00;;;;;;5058881;28;20797;-77
2021/04/04 01:53:44;;;;;;;26.98;8.57;;;5.40;46.70;;;;;;5057147;28;20415;-77
2021/04/04 01:56:10;;;;;;;29.15;7.60;;;5.40;46.10;;;;;;5055296;28;20995;-78
2021/04/04 01:58:38;;;;;;;28.10;8.10;;;5.30;46.60;;;;;;5069196;28;20390;-78
2021/04/04 02:01:06;;;;;;;25.58;8.60;;;5.20;50.80;;;;;;5060407;28;20397;-78
2021/04/04 02:03:32;;;;;;;26.73;8.35;;;5.30;50.90;;;;;;5055920;28;20389;-77
2021/04/04 02:05:59;;;;;;;31.17;8.35;;;5.50;47.60;;;;;;5036796;28;20401;-77
2021/04/04 02:08:25;;;;;;;25.02;7.10;;;5.70;45.30;;;;;;5044876;28;20411;-78
2021/04/04 02:10:52;;;;;;;26.67;6.90;;;6.00;40.60;;;;;;5055645;28;20444;-77
2021/04/04 02:13:19;;;;;;;31.40;7.68;;;6.00;38.10;;;;;;5045106;28;20450;-76
2021/04/04 02:15:45;;;;;;;28.00;7.38;;;6.00;39.70;;;;;;5059263;28;20414;-78
2021/04/04 02:18:12;;;;;;;24.13;7.28;;;6.00;43.10;;;;;;5057195;28;20386;-78
2021/04/04 02:20:39;;;;;;;27.73;7.45;;;6.10;42.30;;;;;;5056881;28;20455;-78
2021/04/04 02:23:09;;;;;;;26.27;8.38;;;6.20;40.40;;;;;;5056088;28;20385;-77
2021/04/04 02:25:35;;;;;;;28.15;7.60;;;6.20;39.50;;;;;;5034750;28;20395;-78
2021/04/04 02:28:01;;;;;;;27.92;6.90;;;6.30;40.20;;;;;;5046724;28;21004;-78
2021/04/04 02:30:27;;;;;;;20.67;6.30;;;6.30;39.30;;;;;;5059033;28;20408;-77
2021/04/04 02:32:59;;;;;;;24.48;6.40;;;6.30;37.00;;;;;;5077443;28;20464;-76
2021/04/04 02:35:31;;;;;;;24.75;7.28;;;6.40;37.00;;;;;;5074506;28;20393;-77
2021/04/04 02:38:01;;;;;;;33.25;8.40;;;6.30;40.00;;;;;;5065636;28;20432;-76
2021/04/04 02:40:27;;;;;;;21.05;8.18;;;6.30;40.50;;;;;;5073208;28;20381;-75
2021/04/04 02:42:56;;;;;;;32.17;8.70;;;6.30;39.40;;;;;;5057578;28;20416;-77
2021/04/04 02:45:24;;;;;;;26.77;9.20;;;6.10;41.00;;;;;;5075184;28;20381;-77
2021/04/04 02:47:56;;;;;;;31.33;9.20;;;5.90;42.60;;;;;;5053800;28;20407;-77
2021/04/04 02:50:24;;;;;;;28.33;9.18;;;6.00;42.50;;;;;;5052822;28;20409;-76
2021/04/04 02:52:53;;;;;;;25.45;8.60;;;6.00;42.90;;;;;;5057281;28;20382;-77
2021/04/04 02:55:19;;;;;;;30.30;10.15;;;6.30;42.50;;;;;;5056308;28;20400;-77
2021/04/04 02:57:47;;;;;;;37.55;9.57;;;6.20;42.70;;;;;;5047540;28;20399;-76
2021/04/04 03:00:16;;;;;;;27.45;9.00;;;6.00;44.60;;;;;;5052980;28;20388;-76
2021/04/04 03:02:42;;;;;;;23.88;9.07;;;6.20;43.40;;;;;;5054022;28;20465;-76
2021/04/04 03:05:09;;;;;;;23.50;9.40;;;6.10;44.50;;;;;;5040840;28;20417;-76
2021/04/04 03:07:37;;;;;;;29.13;8.87;;;6.10;44.10;;;;;;5044316;28;20393;-76
2021/04/04 03:10:05;;;;;;;25.58;8.90;;;6.40;41.00;;;;;;5052673;28;20909;-75
2021/04/04 03:12:33;;;;;;;35.00;8.75;;;6.70;38.10;;;;;;5053124;28;20397;-75
2021/04/04 03:15:01;;;;;;;28.50;9.13;;;6.70;38.30;;;;;;5053119;28;20442;-75
2021/04/04 03:17:28;;;;;;;31.92;8.90;;;6.60;38.20;;;;;;5040342;28;20433;-76
2021/04/04 03:19:54;;;;;;;36.67;9.23;;;6.40;39.10;;;;;;5042526;28;20883;-74
2021/04/04 03:22:22;;;;;;;29.58;8.63;;;6.30;39.30;;;;;;5046036;28;20893;-75
2021/04/04 03:24:50;;;;;;;35.70;9.30;;;6.20;40.00;;;;;;5051779;28;20385;-74
2021/04/04 03:27:18;;;;;;;25.30;8.50;;;6.10;41.10;;;;;;5052000;28;20453;-75
2021/04/04 03:29:45;;;;;;;28.05;9.93;;;5.90;41.60;;;;;;5035693;28;20411;-74
2021/04/04 03:32:11;;;;;;;28.20;8.05;;;6.00;42.30;;;;;;5032232;28;20387;-76
2021/04/04 03:34:37;;;;;;;29.67;8.20;;;6.00;42.00;;;;;;5045491;28;20523;-75
2021/04/04 03:37:03;;;;;;;29.67;8.80;;;6.00;42.30;;;;;;5051521;28;20926;-75
2021/04/04 03:39:29;;;;;;;29.42;8.45;;;6.00;42.40;;;;;;5034223;28;20487;-75
2021/04/04 03:41:58;;;;;;;29.17;8.50;;;6.10;42.30;;;;;;5033604;28;20440;-76
2021/04/04 03:44:30;;;;;;;26.20;8.15;;;6.00;42.20;;;;;;5051132;28;20421;-75
2021/04/04 03:46:57;;;;;;;26.23;8.00;;;6.00;42.20;;;;;;5051052;28;20890;-75
2021/04/04 03:49:23;;;;;;;28.67;8.70;;;6.00;42.20;;;;;;5033999;28;20765;-74
2021/04/04 03:51:54;;;;;;;28.83;8.25;;;6.00;42.10;;;;;;5051441;28;20386;-75
2021/04/04 03:54:20;;;;;;;31.95;8.93;;;6.00;43.00;;;;;;5052078;28;20382;-76
2021/04/04 03:56:48;;;;;;;29.48;8.20;;;6.00;43.00;;;;;;5053962;28;20385;-76
2021/04/04 03:59:16;;;;;;;24.33;7.33;;;6.10;42.50;;;;;;5055058;28;20409;-75
2021/04/04 04:01:45;;;;;;;30.23;8.98;;;6.10;43.30;;;;;;5050643;28;20797;-75
2021/04/04 04:04:12;;;;;;;28.15;8.40;;;6.00;42.60;;;;;;5032833;28;20404;-77
2021/04/04 04:06:40;;;;;;;28.80;9.05;;;6.00;43.00;;;;;;5032167;28;20902;-77
2021/04/04 04:09:08;;;;;;;28.10;9.23;;;6.00;43.00;;;;;;5050801;28;20409;-74
2021/04/04 04:11:40;;;;;;;33.35;10.10;;;6.00;43.40;;;;;;5050582;28;20385;-75
2021/04/04 04:14:07;;;;;;;32.57;8.87;;;6.00;44.80;;;;;;5048956;28;20389;-76
2021/04/04 04:16:36;;;;;;;41.90;8.70;;;6.20;43.90;;;;;;5037894;28;20397;-76
2021/04/04 04:19:03;;;;;;;29.90;8.57;;;6.20;42.50;;;;;;5051183;28;20424;-76
2021/04/04 04:21:31;;;;;;;26.20;9.18;;;6.30;42.10;;;;;;5050346;28;20405;-76
2021/04/04 04:23:58;;;;;;;39.97;10.00;;;6.40;42.30;;;;;;5032615;28;20393;-76
2021/04/04 04:26:24;;;;;;;23.42;8.30;;;6.30;41.90;;;;;;5051216;28;20793;-75
2021/04/04 04:28:50;;;;;;;36.28;9.23;;;6.30;42.10;;;;;;5050867;28;20428;-76
2021/04/04 04:31:20;;;;;;;24.13;8.40;;;6.30;42.80;;;;;;5049459;28;20472;-76
2021/04/04 04:33:50;;;;;;;23.90;9.13;;;6.30;43.20;;;;;;5032380;28;20393;-76
2021/04/04 04:36:18;;;;;;;27.02;8.07;;;6.30;42.90;;;;;;5050488;28;20850;-75
2021/04/04 04:38:45;;;;;;;26.15;8.90;;;6.40;42.40;;;;;;5050832;28;20465;-76
2021/04/04 04:41:13;;;;;;;26.57;8.70;;;6.40;42.40;;;;;;5050641;28;20497;-77
2021/04/04 04:43:42;;;;;;;30.02;9.40;;;6.40;43.50;;;;;;5050217;28;20408;-75
2021/04/04 04:46:08;;;;;;;37.47;9.35;;;6.40;42.90;;;;;;5050599;28;20381;-75
2021/04/04 04:48:35;;;;;;;26.75;9.50;;;6.40;42.20;;;;;;5050881;28;20405;-76
2021/04/04 04:51:00;;;;;;;25.10;9.80;;;6.40;42.10;;;;;;5050493;28;20386;-75
2021/04/04 04:53:27;;;;;;;28.15;9.55;;;6.40;42.20;;;;;;5050385;28;20420;-74
2021/04/04 04:56:03;;;;;;;31.40;10.00;;;6.40;42.90;;;;;;5050151;28;20778;-74
2021/04/04 04:58:30;;;;;;;29.52;9.80;;;6.40;44.80;;;;;;5059493;28;20814;-75
2021/04/04 05:01:03;;;;;;;26.00;9.45;;;6.40;43.10;;;;;;5054485;28;20405;-75
2021/04/04 05:03:29;;;;;;;25.38;9.30;;;6.50;42.00;;;;;;5054264;28;20405;-75
2021/04/04 05:06:06;;;;;;;30.08;9.55;;;6.40;42.90;;;;;;5054588;28;20448;-76
2021/04/04 05:08:33;;;;;;;30.73;9.73;;;6.40;42.20;;;;;;5054017;28;20951;-76
2021/04/04 05:11:03;;;;;;;21.03;8.80;;;6.40;43.30;;;;;;5055658;28;20905;-75
2021/04/04 05:13:30;;;;;;;33.30;9.25;;;6.40;42.10;;;;;;5055695;28;20438;-76
2021/04/04 05:15:57;;;;;;;25.95;8.88;;;6.30;43.20;;;;;;5055996;28;20393;-76
2021/04/04 05:18:23;;;;;;;31.03;9.30;;;6.30;43.70;;;;;;5051644;28;20802;-76
2021/04/04 05:20:49;;;;;;;35.92;9.23;;;6.30;43.50;;;;;;5029418;28;20480;-77
2021/04/04 05:23:22;;;;;;;25.00;9.23;;;6.30;44.20;;;;;;5035603;28;20401;-76
2021/04/04 05:25:53;;;;;;;25.98;8.20;;;6.40;43.90;;;;;;5034510;28;20884;-76
2021/04/04 05:28:18;;;;;;;31.10;9.70;;;6.40;43.80;;;;;;5037283;28;20494;-76
2021/04/04 05:30:44;;;;;;;28.33;9.30;;;6.50;42.10;;;;;;5041988;28;20414;-78
2021/04/04 05:33:10;;;;;;;32.40;9.20;;;6.60;43.40;;;;;;5054002;28;20431;-78
2021/04/04 05:35:39;;;;;;;26.38;9.00;;;6.60;42.80;;;;;;5065133;28;20782;-78
2021/04/04 05:38:06;;;;;;;30.35;9.35;;;6.60;40.90;;;;;;5061368;28;20385;-78
2021/04/04 05:40:31;;;;;;;31.77;8.80;;;6.70;40.80;;;;;;5061031;28;20515;-78
2021/04/04 05:43:02;;;;;;;32.45;10.52;;;6.70;39.80;;;;;;5060445;28;20406;-79
2021/04/04 05:45:46;;;;;;;31.83;9.85;;;6.60;42.10;;;;;;5034282;28;20395;-79
2021/04/04 05:48:52;;;;;;;25.80;8.75;;;6.70;40.40;;;;;;5040556;28;20403;-78
2021/04/04 05:51:37;;;;;;;30.08;9.85;;;6.70;40.20;;;;;;5061846;28;20392;-78
2021/04/04 05:54:02;;;;;;;33.45;9.68;;;6.80;40.50;;;;;;5059579;28;20382;-79
2021/04/04 05:56:35;;;;;;;27.00;9.00;;;6.80;40.10;;;;;;5046976;28;20402;-78
2021/04/04 05:59:06;;;;;;;32.27;8.20;;;6.80;39.30;;;;;;5050813;28;20399;-79
2021/04/04 06:01:32;;;;;;;26.63;8.60;;;6.90;37.60;;;;;;5035568;28;20535;-79
2021/04/04 06:04:29;;;;;;;24.40;8.43;;;6.90;37.20;;;;;;5046230;28;20406;-79
2021/04/04 06:07:17;;;;;;;27.02;8.95;;;6.90;36.30;;;;;;5038179;28;20394;-79
2021/04/04 06:10:05;;;;;;;30.98;9.10;;;6.90;37.90;;;;;;5048942;28;20413;-78
2021/04/04 06:13:13;;;;;;;26.73;9.80;;;7.10;37.20;;;;;;5055925;28;20393;-78
2021/04/04 06:15:54;;;;;;;23.58;9.23;;;7.10;35.90;;;;;;5054273;28;20389;-76
2021/04/04 06:18:54;;;;;;;27.88;10.00;;;7.10;36.00;;;;;;5052242;28;20397;-76
2021/04/04 06:21:29;;;;;;;24.00;9.00;;;7.10;37.50;;;;;;5050544;28;20443;-75
2021/04/04 06:24:06;;;;;;;25.52;9.63;;;7.10;36.30;;;;;;5044941;28;20396;-74
2021/04/04 06:26:37;;;;;;;27.08;9.73;;;7.10;37.60;;;;;;5048424;28;20741;-73
2021/04/04 06:29:27;;;;;;;21.70;9.80;;;7.10;38.60;;;;;;5052528;28;20445;-75
2021/04/04 06:32:05;;;;;;;31.05;10.95;;;7.20;36.40;;;;;;5052319;28;20388;-75
2021/04/04 06:34:45;;;;;;;32.13;11.40;;;7.20;36.30;;;;;;5040560;28;20758;-74
2021/04/04 06:37:14;;;;;;;24.88;10.15;;;7.10;36.20;;;;;;5037764;28;20772;-74
2021/04/04 06:39:51;;;;;;;25.48;9.90;;;7.00;37.40;;;;;;5035289;28;20379;-76
2021/04/04 06:42:26;;;;;;;28.95;10.23;;;7.30;35.20;;;;;;5043133;28;20439;-76
2021/04/04 06:45:33;;;;;;;36.45;12.27;;;7.50;34.40;;;;;;5053478;28;20423;-75
2021/04/04 06:48:23;;;;;;;32.75;12.10;;;7.20;35.20;;;;;;5044240;28;20412;-74
2021/04/04 06:50:55;;;;;;;31.15;12.50;;;7.20;34.80;;;;;;5049423;28;20407;-74
2021/04/04 06:53:39;;;;;;;32.30;12.55;;;7.20;35.20;;;;;;5053035;28;20412;-75
2021/04/04 06:56:17;;;;;;;26.70;12.00;;;7.10;34.50;;;;;;5040361;28;20402;-73
2021/04/04 06:58:57;;;;;;;27.52;12.15;;;7.10;35.70;;;;;;5060189;28;20465;-74
2021/04/04 07:01:30;;;;;;;28.10;11.65;;;7.60;34.80;;;;;;5053353;28;20424;-75
2021/04/04 07:04:01;;;;;;;25.58;9.68;;;7.50;34.20;;;;;;5052568;28;20409;-75
2021/04/04 07:07:04;;;;;;;29.15;10.23;;;7.70;31.20;;;;;;5054134;28;20878;-74
2021/04/04 07:09:48;;;;;;;29.52;10.40;;;7.70;31.20;;;;;;5028247;28;20537;-74
2021/04/04 07:12:35;;;;;;;26.13;9.02;;;7.40;33.50;;;;;;5050010;28;20410;-74
2021/04/04 07:15:13;;;;;;;29.10;9.20;;;7.50;32.40;;;;;;5040606;28;21017;-73
2021/04/04 07:17:48;;;;;;;34.47;9.57;;;7.50;33.00;;;;;;5051959;28;20439;-73
2021/04/04 07:20:48;;;;;;;28.38;10.00;;;7.60;36.30;;;;;;5053176;28;20476;-73
2021/04/04 07:23:49;;;;;;;31.73;10.07;;;7.70;36.10;;;;;;5050615;28;20918;-73
2021/04/04 07:26:26;;;;;;;25.98;9.88;;;7.70;35.30;;;;;;5052983;28;20385;-73
2021/04/04 07:29:29;;;;;;;29.48;10.80;;;7.70;34.20;;;;;;5082578;22;20434;-70
2021/04/04 07:32:15;;;;;;;27.45;10.88;;;7.60;33.90;;;;;;5071496;28;20388;-71
2021/04/04 07:35:12;;;;;;;36.77;12.27;;;7.70;32.20;;;;;;5070890;28;20438;-71
2021/04/04 07:37:51;;;;;;;33.72;12.88;;;7.70;32.60;;;;;;5063027;28;20394;-73
2021/04/04 07:40:24;;;;;;;32.40;12.50;;;7.70;32.30;;;;;;5070923;28;20443;-72
2021/04/04 07:42:59;;;;;;;32.03;13.32;;;7.80;32.80;;;;;;5065086;28;20483;-72
2021/04/04 07:45:35;;;;;;;28.57;13.13;;;7.50;31.30;;;;;;5052562;28;20374;-76
2021/04/04 07:48:06;;;;;;;29.63;14.18;;;7.40;32.00;;;;;;5061333;28;20412;-71
2021/04/04 07:50:42;;;;;;;32.88;14.60;;;7.30;32.50;;;;;;5070575;28;20928;-71
2021/04/04 07:53:45;;;;;;;34.15;15.68;;;7.20;32.70;;;;;;5076558;28;20405;-74
2021/04/04 07:56:20;;;;;;;33.20;15.23;;;7.10;33.90;;;;;;5069969;28;20391;-71
2021/04/04 07:59:23;;;;;;;43.92;18.70;;;7.10;33.90;;;;;;5085110;28;20893;-72
2021/04/04 08:02:11;;;;;;;35.78;17.92;;;7.00;34.20;;;;;;5064377;28;20432;-73
2021/04/04 08:05:01;;;;;;;37.80;17.48;;;7.10;34.10;;;;;;5040232;28;20388;-72
2021/04/04 08:07:50;;;;;;;40.65;16.83;;;7.20;33.40;;;;;;5064361;28;20390;-72
2021/04/04 08:10:28;;;;;;;34.90;17.00;;;7.20;33.10;;;;;;5066608;28;20415;-72
2021/04/04 08:13:24;;;;;;;33.05;14.95;;;7.40;32.70;;;;;;5064532;28;20397;-72
2021/04/04 08:15:56;;;;;;;25.92;14.40;;;7.40;32.50;;;;;;5068624;28;20420;-73
2021/04/04 08:18:21;;;;;;;28.67;13.70;;;7.30;32.40;;;;;;5049545;28;20897;-73
2021/04/04 08:20:48;;;;;;;26.60;11.60;;;7.20;33.20;;;;;;5073761;28;20396;-71
2021/04/04 08:23:38;;;;;;;24.73;11.15;;;7.20;33.60;;;;;;5067804;28;20386;-70
2021/04/04 08:26:07;;;;;;;22.65;10.85;;;7.40;33.60;;;;;;5057464;28;20907;-71
2021/04/04 08:29:04;;;;;;;21.60;7.90;;;7.30;33.80;;;;;;5069964;28;20791;-71
2021/04/04 08:31:32;;;;;;;16.23;6.15;;;7.00;33.80;;;;;;5078872;28;20420;-73
2021/04/04 08:34:25;;;;;;;20.45;6.45;;;6.90;35.40;;;;;;5069735;28;20406;-71
2021/04/04 08:37:12;;;;;;;18.05;6.00;;;7.00;35.50;;;;;;5057421;28;20405;-71
2021/04/04 08:39:39;;;;;;;17.60;6.25;;;7.10;34.90;;;;;;5069017;28;20404;-72
2021/04/04 08:42:07;;;;;;;12.95;5.45;;;7.10;34.70;;;;;;5060315;28;20397;-72
2021/04/04 08:44:43;;;;;;;16.30;6.10;;;7.00;35.30;;;;;;5054900;28;20409;-71
2021/04/04 08:47:26;;;;;;;22.07;6.63;;;7.10;35.30;;;;;;5073406;28;20380;-74
2021/04/04 08:49:53;;;;;;;18.85;7.60;;;7.10;35.00;;;;;;5070031;28;20479;-72
2021/04/04 08:53:13;;;;;;;16.15;5.78;;;7.10;34.90;;;;;;5069229;28;20752;-72
2021/04/04 08:55:40;;;;;;;17.88;6.65;;;7.10;35.10;;;;;;5065618;28;20449;-72
2021/04/04 08:58:09;;;;;;;20.58;6.97;;;7.30;34.40;;;;;;5074089;28;20403;-72
2021/04/04 09:00:36;;;;;;;18.17;6.93;;;7.40;34.10;;;;;;5069508;28;20479;-72
2021/04/04 09:03:23;;;;;;;10.63;5.40;;;7.50;33.20;;;;;;5068440;28;20402;-71
2021/04/04 09:05:48;;;;;;;17.77;6.40;;;7.70;33.60;;;;;;5064031;28;20433;-75
2021/04/04 09:08:15;;;;;;;14.87;6.20;;;7.60;31.90;;;;;;5071927;28;20474;-73
2021/04/04 09:10:42;;;;;;;21.03;7.07;;;7.50;33.00;;;;;;5071334;28;20388;-72
2021/04/04 09:13:10;;;;;;;15.73;6.43;;;7.50;33.80;;;;;;5070878;28;20399;-75
2021/04/04 09:15:56;;;;;;;20.73;6.90;;;7.30;33.80;;;;;;5071736;28;20914;-76
2021/04/04 09:18:23;;;;;;;16.40;5.95;;;7.40;34.30;;;;;;5067447;28;20481;-73
2021/04/04 09:20:50;;;;;;;15.93;6.00;;;7.30;34.80;;;;;;5071784;28;20528;-73
2021/04/04 09:23:20;;;;;;;17.80;5.70;;;7.30;35.00;;;;;;5070053;28;20414;-72
2021/04/04 09:25:52;;;;;;;10.02;5.07;;;7.20;35.70;;;;;;5052781;28;20748;-73
2021/04/04 09:28:21;;;;;;;15.93;6.40;;;7.30;35.40;;;;;;5069370;28;20406;-74
2021/04/04 09:30:46;;;;;;;19.67;6.50;;;7.20;35.80;;;;;;5062213;28;20399;-74
2021/04/04 09:33:17;;;;;;;20.35;7.88;;;7.30;36.20;;;;;;5066204;28;20461;-73
2021/04/04 09:35:46;;;;;;;16.33;5.90;;;7.50;35.80;;;;;;5066940;28;20418;-72
2021/04/04 09:38:13;;;;;;;17.80;5.38;;;7.70;34.30;;;;;;5077116;28;20477;-73
2021/04/04 09:40:41;;;;;;;16.30;5.60;;;7.80;33.00;;;;;;5059735;28;20438;-74
2021/04/04 09:43:15;;;;;;;10.10;5.60;;;7.90;32.90;;;;;;5069543;28;20392;-72
2021/04/04 09:45:41;;;;;;;15.10;5.60;;;8.00;31.80;;;;;;5076435;28;20394;-73
2021/04/04 09:48:24;;;;;;;13.20;5.88;;;8.00;31.10;;;;;;5074054;28;20405;-72
2021/04/04 09:51:09;;;;;;;16.25;5.97;;;8.10;30.50;;;;;;5061406;28;20885;-72
2021/04/04 09:53:42;;;;;;;10.48;5.60;;;8.30;30.40;;;;;;5068650;28;20461;-73
2021/04/04 09:56:10;;;;;;;11.88;5.70;;;8.30;30.00;;;;;;5077099;28;20399;-72
2021/04/04 09:58:41;;;;;;;13.65;5.47;;;8.60;28.80;;;;;;5081653;28;20464;-73
2021/04/04 10:01:15;;;;;;;15.32;5.88;;;8.70;28.50;;;;;;5068513;28;20403;-72
2021/04/04 10:03:41;;;;;;;15.30;5.95;;;8.70;27.50;;;;;;5065939;28;20399;-72
2021/04/04 10:06:12;;;;;;;13.07;5.30;;;8.60;28.80;;;;;;5063899;28;20738;-72
2021/04/04 10:08:51;;;;;;;14.48;6.00;;;8.60;28.10;;;;;;5070395;28;20525;-73
2021/04/04 10:11:18;;;;;;;14.15;5.45;;;8.20;28.60;;;;;;5072687;28;20417;-73
2021/04/04 10:13:44;;;;;;;17.17;6.50;;;8.10;30.80;;;;;;5069126;28;20450;-73
2021/04/04 10:16:36;;;;;;;16.37;7.50;;;8.30;30.50;;;;;;5068314;28;20502;-72
2021/04/04 10:19:14;;;;;;;18.88;9.38;;;8.50;28.40;;;;;;5062074;28;20422;-73
2021/04/04 10:21:54;;;;;;;16.95;7.70;;;8.40;28.60;;;;;;5066235;28;20760;-73
2021/04/04 10:24:26;;;;;;;18.00;9.05;;;8.20;29.10;;;;;;5068036;28;20399;-73
2021/04/04 10:27:26;;;;;;;14.80;7.78;;;8.10;30.70;;;;;;5071199;28;20529;-73
2021/04/04 10:30:06;;;;;;;10.82;5.03;;;8.30;29.50;;;;;;5068003;28;20491;-73
2021/04/04 10:32:31;;;;;;;13.27;4.82;;;8.30;28.90;;;;;;5072004;28;20387;-72
2021/04/04 10:34:57;;;;;;;12.07;4.88;;;8.30;29.00;;;;;;5067566;28;20785;-72
2021/04/04 10:37:25;;;;;;;10.35;4.82;;;8.40;29.30;;;;;;5057919;28;20414;-72
2021/04/04 10:40:07;;;;;;;11.10;5.80;;;8.30;29.00;;;;;;5071560;28;20792;-72
2021/04/04 10:42:34;;;;;;;16.13;7.90;;;8.20;29.80;;;;;;5071710;28;20392;-71
2021/04/04 10:45:11;;;;;;;17.73;7.82;;;8.20;30.20;;;;;;5052911;28;20792;-71
2021/04/04 10:47:37;;;;;;;15.30;8.57;;;8.10;31.60;;;;;;5060594;28;20739;-73
2021/04/04 10:50:07;;;;;;;21.85;11.07;;;7.90;31.10;;;;;;5065642;28;20399;-72
2021/04/04 10:52:34;;;;;;;13.63;8.50;;;8.00;31.60;;;;;;5065459;28;20399;-72
2021/04/04 10:55:00;;;;;;;14.15;7.18;;;8.10;31.10;;;;;;5069508;28;20403;-73
2021/04/04 10:57:28;;;;;;;14.75;6.75;;;8.20;31.70;;;;;;5068774;28;20755;-73
2021/04/04 10:59:55;;;;;;;9.52;4.82;;;8.20;31.70;;;;;;5071472;28;20630;-73
2021/04/04 11:02:24;;;;;;;15.07;6.47;;;8.20;31.90;;;;;;5052790;28;20403;-73
2021/04/04 11:04:50;;;;;;;12.90;5.72;;;8.30;32.50;;;;;;5046338;28;20394;-73
2021/04/04 11:07:19;;;;;;;13.80;6.30;;;8.60;30.80;;;;;;5065729;28;20395;-71
2021/04/04 11:09:46;;;;;;;17.40;6.30;;;8.40;30.40;;;;;;5053750;28;20392;-73
2021/04/04 11:12:12;;;;;;;15.70;6.28;;;8.30;31.30;;;;;;5067843;28;20399;-73
2021/04/04 11:14:40;;;;;;;14.43;6.18;;;8.40;31.80;;;;;;5070777;28;20402;-73
2021/04/04 11:17:07;;;;;;;14.15;6.07;;;8.30;31.50;;;;;;5068504;28;20449;-73
2021/04/04 11:19:34;;;;;;;12.30;6.50;;;8.40;31.60;;;;;;5071681;28;20532;-73
2021/04/04 11:22:01;;;;;;;15.02;5.10;;;8.70;30.50;;;;;;5078253;28;20383;-71
2021/04/04 11:24:27;;;;;;;15.43;5.80;;;8.90;28.60;;;;;;5067108;28;20448;-73
2021/04/04 11:26:57;;;;;;;11.73;5.97;;;8.90;29.10;;;;;;5070815;28;20392;-73
2021/04/04 11:29:24;;;;;;;20.02;6.30;;;8.60;29.60;;;;;;5074447;28;20412;-73
2021/04/04 11:31:55;;;;;;;19.73;7.05;;;8.70;29.80;;;;;;5070631;28;20411;-73
2021/04/04 11:34:31;;;;;;;17.70;6.45;;;8.80;28.90;;;;;;5064561;28;20761;-70
2021/04/04 11:37:05;;;;;;;11.00;5.80;;;9.10;28.20;;;;;;5068308;28;20507;-75
2021/04/04 11:39:32;;;;;;;10.45;6.47;;;9.30;27.30;;;;;;5070298;28;20540;-74
2021/04/04 11:42:00;;;;;;;14.13;6.07;;;9.40;27.00;;;;;;5038562;28;20402;-72
2021/04/04 11:44:40;;;;;;;15.85;6.32;;;9.60;26.20;;;;;;5051562;28;20699;-72
2021/04/04 11:47:15;;;;;;;11.63;6.53;;;9.80;25.70;;;;;;5062520;28;20745;-74
2021/04/04 11:49:48;;;;;;;13.65;6.53;;;9.90;25.10;;;;;;5058155;28;20396;-72
2021/04/04 11:52:17;;;;;;;17.85;6.82;;;10.00;24.30;;;;;;5062491;28;20419;-73
2021/04/04 11:54:49;;;;;;;11.43;5.68;;;10.10;24.20;;;;;;5070237;28;20453;-72
2021/04/04 11:57:35;;;;;;;17.10;5.95;;;10.40;20.90;;;;;;5070468;28;20474;-71
2021/04/04 12:00:06;;;;;;;11.38;4.32;;;10.00;22.40;;;;;;5063396;28;20454;-71
2021/04/04 12:02:34;;;;;;;13.48;4.95;;;9.40;24.90;;;;;;5070829;28;20403;-73
2021/04/04 12:05:09;;;;;;;16.75;5.20;;;9.40;25.10;;;;;;5069993;28;20414;-72
2021/04/04 12:08:00;;;;;;;13.07;4.78;;;9.50;24.90;;;;;;5056664;28;20439;-71
2021/04/04 12:10:34;;;;;;;17.47;6.73;;;9.20;24.60;;;;;;5072699;28;20458;-75
2021/04/04 12:12:59;;;;;;;11.55;4.90;;;9.40;26.10;;;;;;5069876;28;20803;-72
2021/04/04 12:15:27;;;;;;;12.40;4.70;;;9.70;24.20;;;;;;5070068;28;20438;-72
2021/04/04 12:17:58;;;;;;;8.75;5.00;;;10.00;22.70;;;;;;5070303;28;20427;-73
2021/04/04 12:20:32;;;;;;;13.07;5.23;;;10.30;21.60;;;;;;5080853;28;20469;-71
2021/04/04 12:22:58;;;;;;;12.13;5.43;;;10.40;21.00;;;;;;5071475;28;20396;-73
2021/04/04 12:25:27;;;;;;;15.25;5.90;;;10.50;21.20;;;;;;5053286;28;20469;-73
2021/04/04 12:27:55;;;;;;;12.93;5.40;;;10.40;20.60;;;;;;5071369;28;20801;-72
2021/04/04 12:30:31;;;;;;;9.98;5.10;;;10.20;21.90;;;;;;5071663;28;20505;-72
2021/04/04 12:33:07;;;;;;;11.02;5.22;;;10.00;21.60;;;;;;5051151;28;20389;-71
2021/04/04 12:35:35;;;;;;;12.20;5.90;;;10.20;21.50;;;;;;5051420;28;20397;-70
2021/04/04 12:38:01;;;;;;;13.02;5.47;;;10.50;20.80;;;;;;5050125;28;20395;-71
2021/04/04 12:40:27;;;;;;;12.30;5.70;;;10.80;19.90;;;;;;5050097;28;20496;-72
2021/04/04 12:42:58;;;;;;;12.10;5.47;;;11.20;17.80;;;;;;5049990;28;20487;-70
2021/04/04 12:45:29;;;;;;;6.32;4.65;;;11.50;16.90;;;;;;5056959;28;20862;-72
2021/04/04 12:47:55;;;;;;;9.65;5.05;;;11.60;16.30;;;;;;5044321;28;20391;-70
2021/04/04 12:50:22;;;;;;;8.27;4.63;;;11.50;16.30;;;;;;5070403;28;20394;-70
2021/04/04 12:52:54;;;;;;;10.30;5.03;;;12.00;15.40;;;;;;5070005;28;20380;-70
2021/04/04 12:55:32;;;;;;;9.40;4.70;;;12.00;15.40;;;;;;5053441;28;20397;-70
2021/04/04 12:58:09;;;;;;;13.50;5.00;;;11.60;14.90;;;;;;5065692;28;20386;-71
2021/04/04 13:00:40;;;;;;;9.98;4.72;;;10.70;17.60;;;;;;5075491;28;20875;-70
2021/04/04 13:03:10;;;;;;;12.05;5.40;;;10.50;19.60;;;;;;5069547;28;20860;-70
2021/04/04 13:05:52;;;;;;;14.70;5.40;;;10.70;19.20;;;;;;5068093;28;20743;-71
2021/04/04 13:08:32;;;;;;;11.32;5.20;;;11.20;18.00;;;;;;5062629;28;20815;-70
2021/04/04 13:11:10;;;;;;;12.02;4.70;;;11.50;16.50;;;;;;5070595;28;20741;-70
2021/04/04 13:13:37;;;;;;;12.05;4.63;;;11.60;16.20;;;;;;5069826;28;20844;-71